Time;durP1;ratioP1;P1;durP2;ratioP2;P2;SDS_P1;SDS_P2;PMS_P1;PMS_P2;Temp;Humidity;BMP_temperature;BMP_pressure;BME280_temperature;BME280_humidity;BME280_pressure;Samples;Min_cycle;Max_cycle;Signal;HPM_P1;HPM_P2
2023/05/22 00:09:33;;;;;;;14.88;8.50;;;15.10;41.10;;;;;;20823484;28;20040;-81
2023/05/22 00:19:34;;;;;;;16.33;8.18;;;15.20;47.00;;;;;;20825845;28;20038;-81
2023/05/22 00:29:35;;;;;;;14.95;7.53;;;15.20;38.50;;;;;;20824166;28;20041;-79
2023/05/22 00:39:37;;;;;;;12.65;7.30;;;15.00;39.50;;;;;;20820150;28;20072;-81
2023/05/22 00:49:38;;;;;;;18.05;8.73;;;15.00;56.60;;;;;;20841427;28;20048;-81
2023/05/22 00:59:39;;;;;;;13.55;8.30;;;14.90;71.20;;;;;;20821961;28;20033;-80
2023/05/22 01:09:41;;;;;;;16.13;8.55;;;14.80;54.00;;;;;;20814024;28;20226;-81
2023/05/22 01:20:08;;;;;;;18.58;10.55;;;14.60;41.60;;;;;;20812999;28;20046;-80
2023/05/22 01:30:18;;;;;;;14.90;9.30;;;14.60;54.20;;;;;;20792671;28;20053;-83
2023/05/22 01:40:20;;;;;;;14.27;8.63;;;14.60;54.30;;;;;;20813294;28;20044;-81
2023/05/22 01:50:22;;;;;;;18.17;11.00;;;14.60;69.00;;;;;;20818568;28;20514;-82
2023/05/22 02:00:25;;;;;;;15.02;8.88;;;14.50;93.50;;;;;;20824244;28;20049;-82
2023/05/22 02:10:28;;;;;;;17.08;10.27;;;14.50;82.10;;;;;;20804665;28;20041;-81
2023/05/22 02:20:29;;;;;;;22.33;10.40;;;14.40;70.70;;;;;;20814831;28;20204;-82
2023/05/22 02:30:30;;;;;;;13.60;8.52;;;14.30;68.50;;;;;;20822280;28;20613;-79
2023/05/22 02:40:31;;;;;;;16.35;9.13;;;14.30;92.70;;;;;;20828683;28;20038;-80
2023/05/22 02:50:32;;;;;;;17.38;9.40;;;14.20;97.70;;;;;;20838084;28;20033;-79
2023/05/22 03:00:33;;;;;;;19.05;10.07;;;14.10;93.10;;;;;;20820484;28;20394;-79
2023/05/22 03:10:34;;;;;;;15.75;9.75;;;14.10;94.00;;;;;;20837538;28;20048;-80
2023/05/22 03:20:35;;;;;;;19.15;10.07;;;14.10;92.70;;;;;;20813851;28;20048;-80
2023/05/22 03:30:36;;;;;;;16.42;9.63;;;13.90;93.00;;;;;;20831951;28;20037;-81
2023/05/22 03:40:37;;;;;;;16.10;10.13;;;13.90;94.90;;;;;;20823337;28;20068;-82
2023/05/22 03:50:38;;;;;;;17.38;9.82;;;13.80;99.80;;;;;;20804324;28;20035;-79
2023/05/22 04:00:41;;;;;;;21.88;11.05;;;13.80;99.70;;;;;;20829877;28;20046;-80
2023/05/22 04:10:45;;;;;;;20.50;11.73;;;13.80;99.90;;;;;;20812569;28;22283;-83
2023/05/22 04:20:50;;;;;;;22.23;11.07;;;13.80;96.30;;;;;;20817316;28;20084;-80
2023/05/22 04:30:53;;;;;;;19.40;10.77;;;13.70;97.00;;;;;;20809107;28;20048;-81
2023/05/22 04:40:54;;;;;;;21.35;11.30;;;13.70;99.90;;;;;;20816415;28;20071;-80
2023/05/22 04:50:56;;;;;;;22.42;11.93;;;13.80;99.90;;;;;;20819092;28;20067;-80
2023/05/22 05:00:57;;;;;;;21.88;10.50;;;13.80;99.90;;;;;;20827699;28;20044;-80
2023/05/22 05:10:58;;;;;;;19.88;10.32;;;13.90;99.90;;;;;;20821962;28;20041;-81
2023/05/22 05:21:00;;;;;;;19.27;11.02;;;14.00;99.90;;;;;;20801316;28;20488;-79
2023/05/22 05:31:01;;;;;;;22.25;11.55;;;14.20;99.90;;;;;;20809545;28;20062;-80
2023/05/22 05:41:02;;;;;;;24.90;13.05;;;14.40;99.90;;;;;;20811656;28;20056;-80
2023/05/22 05:51:04;;;;;;;20.85;11.48;;;14.80;99.90;;;;;;20804566;28;20030;-85
2023/05/22 06:01:05;;;;;;;25.80;12.02;;;15.00;99.90;;;;;;20784829;28;20036;-82
2023/05/22 06:11:06;;;;;;;22.08;10.43;;;15.20;87.50;;;;;;20813173;28;20040;-83
2023/05/22 06:21:07;;;;;;;18.17;10.48;;;15.50;78.00;;;;;;20824090;28;20072;-85
2023/05/22 06:31:08;;;;;;;21.42;11.48;;;15.60;65.50;;;;;;20750344;28;20041;-83
2023/05/22 06:41:09;;;;;;;20.90;11.55;;;15.90;68.90;;;;;;20731501;28;20080;-78
2023/05/22 06:51:13;;;;;;;19.50;9.85;;;16.20;62.30;;;;;;20754451;28;20029;-81
2023/05/22 07:01:15;;;;;;;21.58;10.63;;;16.50;38.70;;;;;;20737699;28;20038;-84
2023/05/22 07:11:16;;;;;;;19.05;8.73;;;16.80;41.20;;;;;;20739735;28;20037;-82
2023/05/22 07:21:17;;;;;;;19.67;10.70;;;17.10;27.70;;;;;;20742601;28;20034;-79
2023/05/22 07:31:18;;;;;;;14.13;9.23;;;17.50;34.10;;;;;;20831031;28;20040;-82
2023/05/22 07:41:20;;;;;;;18.45;8.65;;;17.90;24.20;;;;;;20840202;28;20690;-81
2023/05/22 07:51:22;;;;;;;20.48;9.48;;;18.10;26.40;;;;;;20833423;28;20048;-80
2023/05/22 08:01:23;;;;;;;13.95;7.82;;;18.50;24.10;;;;;;20843845;28;20041;-83
2023/05/22 08:11:25;;;;;;;17.42;9.52;;;18.80;18.10;;;;;;20800515;28;20044;-82
2023/05/22 08:21:26;;;;;;;16.23;8.75;;;19.20;8.50;;;;;;20808700;28;20041;-82
2023/05/22 08:31:28;;;;;;;16.02;9.45;;;19.50;4.40;;;;;;20802315;28;20038;-80
2023/05/22 08:41:29;;;;;;;20.80;12.35;;;19.70;1.00;;;;;;20841550;28;20045;-84
2023/05/22 08:51:33;;;;;;;16.05;9.52;;;20.00;1.00;;;;;;20838472;28;20026;-83
2023/05/22 09:01:34;;;;;;;17.67;9.00;;;20.10;1.00;;;;;;20842855;28;20049;-80
2023/05/22 09:11:35;;;;;;;15.07;8.18;;;20.30;1.00;;;;;;20859321;28;20036;-82
2023/05/22 09:21:36;;;;;;;14.10;8.48;;;20.40;1.00;;;;;;20902752;28;20045;-82
2023/05/22 09:31:42;;;;;;;14.95;8.80;;;20.50;1.00;;;;;;20866110;28;20034;-83
2023/05/22 09:41:43;;;;;;;11.25;7.40;;;21.00;1.00;;;;;;20848527;28;20377;-81
2023/05/22 09:51:48;;;;;;;13.35;7.38;;;21.30;1.00;;;;;;20821215;28;20061;-84
2023/05/22 10:01:49;;;;;;;14.77;7.82;;;21.60;1.00;;;;;;20865105;28;20065;-79
2023/05/22 10:11:57;;;;;;;11.77;7.55;;;21.70;1.00;;;;;;20877035;28;20148;-81
2023/05/22 10:21:59;;;;;;;12.82;7.40;;;21.90;1.00;;;;;;20871020;28;20064;-81
2023/05/22 10:32:20;;;;;;;12.15;7.30;;;21.90;1.00;;;;;;20875864;28;20125;-78
2023/05/22 10:42:21;;;;;;;17.63;8.73;;;21.80;1.00;;;;;;20863221;28;20060;-81
2023/05/22 10:52:22;;;;;;;11.10;7.28;;;22.10;1.00;;;;;;20839618;28;20108;-81
2023/05/22 11:02:29;;;;;;;14.95;8.43;;;22.80;1.00;;;;;;20885903;28;20063;-79
2023/05/22 11:12:30;;;;;;;10.38;6.53;;;22.80;1.00;;;;;;20901999;28;20044;-82
2023/05/22 11:22:34;;;;;;;11.60;6.57;;;23.40;1.00;;;;;;20875424;28;20064;-80
2023/05/22 11:32:36;;;;;;;17.05;8.55;;;23.40;1.00;;;;;;20816958;28;20030;-79
2023/05/22 11:42:37;;;;;;;11.32;6.30;;;23.20;1.00;;;;;;20844983;28;20041;-81
2023/05/22 11:52:42;;;;;;;12.82;7.45;;;23.50;1.00;;;;;;20885685;28;20064;-81
2023/05/22 12:02:48;;;;;;;12.55;5.60;;;23.40;1.00;;;;;;20881021;28;20454;-81
2023/05/22 12:12:49;;;;;;;6.72;4.20;;;24.30;1.00;;;;;;20852329;28;20041;-81
2023/05/22 12:22:50;;;;;;;8.40;5.35;;;24.90;1.00;;;;;;20879639;28;20125;-82
2023/05/22 12:32:52;;;;;;;12.82;6.25;;;25.10;1.00;;;;;;20862748;28;20041;-82
2023/05/22 12:42:53;;;;;;;11.27;6.13;;;25.10;1.00;;;;;;20829338;28;20092;-81
2023/05/22 12:52:54;;;;;;;14.52;8.07;;;25.60;1.00;;;;;;20861899;28;20044;-79
2023/05/22 13:02:55;;;;;;;11.23;5.80;;;25.70;1.00;;;;;;20866454;28;20065;-81
2023/05/22 13:12:56;;;;;;;9.23;5.55;;;25.70;1.00;;;;;;20871533;28;20065;-81
2023/05/22 13:22:57;;;;;;;10.93;5.18;;;25.40;1.00;;;;;;20855221;28;20065;-83
2023/05/22 13:32:58;;;;;;;7.78;5.07;;;24.70;1.00;;;;;;20859481;28;20033;-80
2023/05/22 13:42:59;;;;;;;7.80;4.50;;;24.30;1.00;;;;;;20873026;28;20068;-81
2023/05/22 13:53:00;;;;;;;6.45;3.90;;;23.50;1.00;;;;;;20858022;28;20128;-79
2023/05/22 14:03:01;;;;;;;5.85;3.28;;;23.60;1.00;;;;;;20852257;28;20093;-78
2023/05/22 14:13:03;;;;;;;5.20;3.08;;;23.80;1.00;;;;;;20858707;28;20049;-81
2023/05/22 14:23:04;;;;;;;8.70;4.30;;;23.70;1.00;;;;;;20857617;28;20076;-81
2023/05/22 14:33:05;;;;;;;6.90;4.38;;;23.90;1.00;;;;;;20879459;28;20080;-78
2023/05/22 14:43:16;;;;;;;11.95;4.50;;;23.40;1.00;;;;;;20867490;28;20037;-79
2023/05/22 14:53:17;;;;;;;11.13;4.53;;;23.30;1.00;;;;;;20858247;28;20110;-79
2023/05/22 15:03:20;;;;;;;8.32;3.65;;;23.40;1.00;;;;;;20865239;28;20076;-80
2023/05/22 15:13:21;;;;;;;7.53;4.05;;;23.00;1.00;;;;;;20832662;28;20320;-81
2023/05/22 15:23:24;;;;;;;7.45;3.72;;;22.70;1.00;;;;;;20838091;28;20048;-80
2023/05/22 15:33:25;;;;;;;6.90;3.15;;;22.50;1.00;;;;;;20852846;28;20041;-82
2023/05/22 15:43:26;;;;;;;4.93;2.25;;;22.40;1.00;;;;;;20853512;28;20065;-83
2023/05/22 15:53:27;;;;;;;4.63;2.28;;;22.60;1.00;;;;;;20861341;28;20100;-81
2023/05/22 16:03:28;;;;;;;5.57;2.30;;;22.50;1.00;;;;;;20881180;28;20695;-82
2023/05/22 16:13:29;;;;;;;5.20;2.30;;;22.30;1.00;;;;;;20861400;28;20063;-82
2023/05/22 16:23:30;;;;;;;4.43;2.53;;;22.20;1.00;;;;;;20862672;28;20500;-83
2023/05/22 16:33:31;;;;;;;4.25;2.20;;;21.90;1.00;;;;;;20865098;28;20067;-82
2023/05/22 16:43:32;;;;;;;4.90;2.75;;;21.90;1.00;;;;;;20866347;28;20045;-84
2023/05/22 16:53:33;;;;;;;3.47;2.00;;;21.90;1.00;;;;;;20836991;28;20029;-81
2023/05/22 17:03:35;;;;;;;3.25;1.85;;;22.00;1.00;;;;;;20855486;28;20052;-85
2023/05/22 17:13:36;;;;;;;5.18;1.63;;;21.80;1.00;;;;;;20831835;28;20141;-78
2023/05/22 17:23:37;;;;;;;3.20;1.90;;;21.50;1.00;;;;;;20869082;28;20069;-80
2023/05/22 17:33:38;;;;;;;4.03;2.03;;;21.10;1.00;;;;;;20844313;28;20100;-81
2023/05/22 17:43:39;;;;;;;4.20;2.10;;;20.90;1.00;;;;;;20869534;28;20061;-81
2023/05/22 17:53:41;;;;;;;4.07;1.90;;;20.70;1.00;;;;;;20839405;28;20049;-82
2023/05/22 18:03:42;;;;;;;5.10;2.72;;;20.50;1.00;;;;;;20827998;28;20502;-80
2023/05/22 18:13:43;;;;;;;4.03;2.00;;;20.30;1.00;;;;;;20854729;28;20124;-82
2023/05/22 18:23:44;;;;;;;4.63;1.83;;;20.20;1.00;;;;;;20849297;28;20060;-80
2023/05/22 18:33:46;;;;;;;5.13;2.70;;;20.00;1.00;;;;;;20831754;28;20056;-80
2023/05/22 18:43:47;;;;;;;4.00;2.47;;;19.80;1.00;;;;;;20775798;28;20041;-84
2023/05/22 18:53:50;;;;;;;6.15;3.15;;;19.60;1.00;;;;;;20833977;28;20037;-81
2023/05/22 19:03:51;;;;;;;7.10;2.95;;;19.50;1.00;;;;;;20799150;28;20041;-81
2023/05/22 19:13:53;;;;;;;13.55;6.07;;;19.20;1.00;;;;;;20807557;28;20045;-81
2023/05/22 19:23:54;;;;;;;7.60;4.15;;;19.00;1.00;;;;;;20807855;28;20047;-79
2023/05/22 19:33:55;;;;;;;8.98;4.03;;;18.50;1.00;;;;;;20844206;28;20492;-81
2023/05/22 19:43:56;;;;;;;7.85;4.60;;;18.20;1.00;;;;;;20837976;28;20136;-80
2023/05/22 19:53:58;;;;;;;10.50;4.32;;;17.90;1.00;;;;;;20829365;28;20040;-81
2023/05/22 20:03:59;;;;;;;7.60;3.83;;;17.70;1.00;;;;;;20828084;28;20050;-79
2023/05/22 20:14:01;;;;;;;10.82;6.07;;;17.60;1.00;;;;;;20820022;28;20963;-79
2023/05/22 20:24:04;;;;;;;9.77;5.78;;;17.50;1.00;;;;;;20814491;28;20029;-80
2023/05/22 20:34:08;;;;;;;14.02;7.25;;;17.10;1.00;;;;;;20813662;28;20068;-80
2023/05/22 20:44:09;;;;;;;9.52;4.60;;;16.70;1.00;;;;;;20832698;28;20072;-83
2023/05/22 20:54:10;;;;;;;7.30;4.03;;;16.70;1.00;;;;;;20836251;28;20040;-83
2023/05/22 21:04:11;;;;;;;7.85;3.85;;;16.50;1.00;;;;;;20819144;28;20033;-81
2023/05/22 21:14:13;;;;;;;5.90;3.20;;;16.30;1.00;;;;;;20819290;28;20369;-82
2023/05/22 21:24:14;;;;;;;7.68;3.85;;;16.10;1.00;;;;;;20822901;28;20396;-80
2023/05/22 21:34:15;;;;;;;5.47;2.78;;;16.00;1.00;;;;;;20827731;28;20052;-82
2023/05/22 21:44:17;;;;;;;7.75;3.03;;;15.90;1.00;;;;;;20801145;28;20057;-83
2023/05/22 21:54:18;;;;;;;5.30;2.30;;;15.80;1.00;;;;;;20806758;28;20115;-83
2023/05/22 22:04:19;;;;;;;4.95;2.47;;;15.70;1.00;;;;;;20822388;28;20041;-82
2023/05/22 22:14:21;;;;;;;5.63;3.47;;;15.60;1.00;;;;;;20791971;28;20049;-81
2023/05/22 22:24:22;;;;;;;17.60;4.18;;;15.50;1.00;;;;;;20796240;28;20037;-81
2023/05/22 22:34:25;;;;;;;6.82;3.95;;;15.50;1.00;;;;;;20820103;28;20051;-82
2023/05/22 22:44:26;;;;;;;6.35;3.55;;;15.50;1.00;;;;;;20822382;28;20021;-82
2023/05/22 22:54:27;;;;;;;10.60;4.15;;;15.50;1.00;;;;;;20817154;28;20485;-83
2023/05/22 23:04:28;;;;;;;6.72;3.47;;;15.60;1.00;;;;;;20851324;28;20037;-82
2023/05/22 23:14:29;;;;;;;7.85;4.07;;;15.50;1.00;;;;;;20815389;28;20041;-84
2023/05/22 23:24:30;;;;;;;11.45;5.47;;;15.40;1.00;;;;;;20807065;28;20037;-82
2023/05/22 23:34:31;;;;;;;9.77;4.63;;;15.20;1.00;;;;;;20839111;28;20029;-82
2023/05/22 23:44:32;;;;;;;10.40;5.07;;;15.00;1.00;;;;;;20813451;28;20404;-82
2023/05/22 23:54:33;;;;;;;13.15;6.30;;;14.80;1.00;;;;;;20817925;28;20397;-82
